Time;durP1;ratioP1;P1;durP2;ratioP2;P2;SDS_P1;SDS_P2;PMS_P1;PMS_P2;Temp;Humidity;BMP_temperature;BMP_pressure;BME280_temperature;BME280_humidity;BME280_pressure;Samples;Min_cycle;Max_cycle;Signal;HPM_P1;HPM_P2
2022/10/07 00:00:52;;;;;;;8.13;6.40;;;14.10;99.80;;;;;;5031165;28;20209;-88
2022/10/07 00:03:20;;;;;;;7.25;6.25;;;14.20;99.50;;;;;;5031270;28;20635;-88
2022/10/07 00:05:47;;;;;;;8.82;6.82;;;14.10;99.50;;;;;;5027850;28;20222;-88
2022/10/07 00:08:25;;;;;;;9.18;6.38;;;14.00;99.70;;;;;;5029753;28;20253;-88
2022/10/07 00:10:52;;;;;;;8.20;6.57;;;13.90;99.90;;;;;;5030782;28;20206;-88
2022/10/07 00:13:19;;;;;;;11.25;6.57;;;13.90;99.90;;;;;;5030628;28;20225;-88
2022/10/07 00:15:51;;;;;;;10.07;6.95;;;13.90;99.90;;;;;;5029049;28;20205;-89
2022/10/07 00:18:18;;;;;;;9.55;6.90;;;13.80;99.90;;;;;;5028145;28;20278;-89
2022/10/07 00:20:45;;;;;;;8.65;6.85;;;13.80;99.90;;;;;;5028658;28;20209;-88
2022/10/07 00:23:12;;;;;;;11.05;6.75;;;13.80;99.90;;;;;;5029922;28;20199;-88
2022/10/07 00:25:39;;;;;;;12.40;6.95;;;13.80;99.90;;;;;;5031040;28;20569;-88
2022/10/07 00:28:06;;;;;;;10.48;6.63;;;13.80;99.90;;;;;;5035084;28;20325;-87
2022/10/07 00:30:33;;;;;;;9.25;7.03;;;13.80;99.90;;;;;;5034687;28;20242;-88
2022/10/07 00:33:01;;;;;;;10.68;6.60;;;13.70;99.90;;;;;;5026067;28;20667;-88
2022/10/07 00:35:35;;;;;;;10.35;6.10;;;13.80;99.90;;;;;;5030237;28;20293;-88
2022/10/07 00:38:02;;;;;;;7.43;6.03;;;13.70;99.90;;;;;;5021027;28;20771;-88
2022/10/07 00:40:29;;;;;;;6.50;5.72;;;13.80;99.90;;;;;;5027638;28;20616;-88
2022/10/07 00:42:55;;;;;;;8.63;6.55;;;13.70;99.90;;;;;;5025378;28;20210;-89
2022/10/07 00:45:23;;;;;;;9.77;5.75;;;13.70;99.90;;;;;;5029843;28;20202;-88
2022/10/07 00:47:51;;;;;;;7.45;6.03;;;13.70;99.90;;;;;;5028384;28;20236;-88
2022/10/07 00:50:21;;;;;;;9.48;5.85;;;13.70;99.90;;;;;;5029271;28;20248;-88
2022/10/07 00:52:51;;;;;;;7.68;6.15;;;13.70;99.90;;;;;;5026926;28;20955;-89
2022/10/07 00:55:21;;;;;;;9.40;6.65;;;13.80;99.90;;;;;;5031105;28;20218;-88
2022/10/07 00:57:50;;;;;;;9.30;6.78;;;13.70;99.90;;;;;;5029690;28;20209;-88
2022/10/07 01:00:17;;;;;;;11.10;6.80;;;13.70;99.90;;;;;;5031827;28;20217;-88
2022/10/07 01:02:47;;;;;;;12.32;5.15;;;13.70;99.90;;;;;;5031969;28;20489;-88
2022/10/07 01:05:14;;;;;;;6.55;5.10;;;13.70;99.90;;;;;;5028387;28;20234;-88
2022/10/07 01:07:43;;;;;;;5.65;4.93;;;13.80;99.90;;;;;;5030906;28;20205;-88
2022/10/07 01:10:17;;;;;;;6.15;5.13;;;13.90;99.90;;;;;;5027907;28;20569;-88
2022/10/07 01:12:56;;;;;;;7.53;4.60;;;14.00;99.90;;;;;;5029999;28;20637;-88
2022/10/07 01:15:33;;;;;;;6.10;5.45;;;13.90;99.90;;;;;;5030384;28;20286;-88
2022/10/07 01:18:08;;;;;;;8.93;5.35;;;13.90;99.90;;;;;;5030163;28;20211;-88
2022/10/07 01:20:44;;;;;;;7.45;5.07;;;13.90;99.90;;;;;;5024796;28;20226;-88
2022/10/07 01:23:50;;;;;;;6.95;5.13;;;13.80;99.90;;;;;;5032787;28;20206;-88
2022/10/07 01:27:02;;;;;;;8.25;5.88;;;13.90;99.80;;;;;;5043323;28;20721;-88
2022/10/07 01:29:36;;;;;;;6.80;4.90;;;13.80;99.80;;;;;;5018072;28;20206;-88
2022/10/07 01:32:09;;;;;;;7.55;5.78;;;13.70;99.90;;;;;;5028005;28;20206;-88
2022/10/07 01:34:38;;;;;;;14.20;5.30;;;13.60;99.90;;;;;;5026820;28;20241;-88
2022/10/07 01:37:11;;;;;;;6.78;5.50;;;13.50;99.90;;;;;;5037739;28;20288;-89
2022/10/07 01:39:43;;;;;;;6.68;4.90;;;13.40;99.90;;;;;;5037202;28;20206;-88
2022/10/07 01:42:15;;;;;;;6.43;5.10;;;13.20;99.90;;;;;;5031376;28;20654;-88
2022/10/07 01:44:47;;;;;;;5.88;4.53;;;13.20;99.90;;;;;;5034710;28;20225;-88
2022/10/07 01:47:14;;;;;;;6.45;4.78;;;13.10;99.90;;;;;;5034746;28;20568;-88
2022/10/07 01:49:41;;;;;;;6.28;4.90;;;13.00;99.90;;;;;;5035344;28;20857;-88
2022/10/07 01:52:23;;;;;;;5.70;4.80;;;13.00;99.90;;;;;;5042271;28;20265;-87
2022/10/07 01:55:21;;;;;;;5.00;4.60;;;13.10;99.90;;;;;;5028024;28;20645;-89
2022/10/07 01:57:53;;;;;;;5.53;4.88;;;13.00;99.90;;;;;;5036578;28;20291;-87
2022/10/07 02:00:42;;;;;;;5.28;4.45;;;13.00;99.90;;;;;;5039697;28;20191;-88
2022/10/07 02:03:29;;;;;;;6.78;5.00;;;13.00;99.90;;;;;;5041248;28;20276;-87
2022/10/07 02:06:06;;;;;;;8.90;5.30;;;12.90;99.90;;;;;;5039874;28;20318;-87
2022/10/07 02:08:38;;;;;;;6.90;5.13;;;12.80;99.90;;;;;;5034287;28;20191;-87
2022/10/07 02:11:13;;;;;;;6.28;5.35;;;12.70;99.90;;;;;;5038023;28;20222;-87
2022/10/07 02:13:44;;;;;;;8.80;5.68;;;12.60;99.90;;;;;;5040095;28;20274;-87
2022/10/07 02:16:18;;;;;;;6.63;5.30;;;12.60;99.90;;;;;;5042085;28;20199;-86
2022/10/07 02:18:48;;;;;;;6.85;5.70;;;12.60;99.90;;;;;;5035571;28;21432;-87
2022/10/07 02:21:24;;;;;;;7.30;6.15;;;12.50;99.90;;;;;;5042859;28;20262;-86
2022/10/07 02:23:58;;;;;;;8.10;6.43;;;12.50;99.90;;;;;;5039524;28;20209;-87
2022/10/07 02:26:27;;;;;;;6.45;5.70;;;12.40;99.90;;;;;;5042490;28;20205;-87
2022/10/07 02:29:11;;;;;;;7.20;5.50;;;12.40;99.90;;;;;;5039887;28;20199;-87
2022/10/07 02:31:42;;;;;;;7.00;6.18;;;12.40;99.90;;;;;;5040980;28;20630;-87
2022/10/07 02:34:18;;;;;;;8.25;6.00;;;12.40;99.90;;;;;;5036498;28;20218;-86
2022/10/07 02:36:50;;;;;;;14.25;6.63;;;12.30;99.90;;;;;;5035907;28;20306;-87
2022/10/07 02:39:27;;;;;;;7.32;5.70;;;12.30;99.90;;;;;;5034636;28;20207;-87
2022/10/07 02:42:02;;;;;;;6.93;5.97;;;12.30;99.90;;;;;;5042581;28;20638;-86
2022/10/07 02:44:34;;;;;;;7.03;6.18;;;12.40;99.90;;;;;;5041527;28;20213;-87
2022/10/07 02:47:21;;;;;;;6.47;5.78;;;12.30;99.90;;;;;;5030945;28;20214;-86
2022/10/07 02:49:52;;;;;;;7.47;5.75;;;12.30;99.90;;;;;;5028988;28;20199;-87
2022/10/07 02:52:20;;;;;;;8.05;5.75;;;12.30;99.90;;;;;;5036588;28;20213;-87
2022/10/07 02:55:31;;;;;;;6.00;5.43;;;12.40;99.90;;;;;;5041694;28;20309;-86
2022/10/07 02:58:11;;;;;;;9.18;5.78;;;12.40;99.90;;;;;;5038844;28;20253;-87
2022/10/07 03:01:20;;;;;;;9.73;6.00;;;12.40;99.90;;;;;;5041316;28;20208;-86
2022/10/07 03:04:25;;;;;;;6.97;5.50;;;12.40;99.90;;;;;;5035950;28;20214;-87
2022/10/07 03:07:15;;;;;;;9.02;5.75;;;12.40;99.90;;;;;;5043513;28;20644;-87
2022/10/07 03:13:08;;;;;;;8.18;5.63;;;12.30;99.90;;;;;;5040313;28;20244;-87
2022/10/07 03:15:36;;;;;;;8.65;6.25;;;12.10;99.90;;;;;;5039442;28;20278;-86
2022/10/07 03:18:27;;;;;;;8.45;6.10;;;12.00;99.90;;;;;;5035921;28;20190;-86
2022/10/07 03:20:54;;;;;;;8.93;6.07;;;11.90;99.90;;;;;;5026923;28;20197;-87
2022/10/07 03:23:23;;;;;;;6.55;5.82;;;11.80;99.90;;;;;;5035344;28;20222;-87
2022/10/07 03:25:51;;;;;;;7.13;5.82;;;11.80;99.90;;;;;;5034853;28;20195;-87
2022/10/07 03:28:19;;;;;;;6.55;5.88;;;11.80;99.90;;;;;;5036097;28;20202;-87
2022/10/07 03:30:50;;;;;;;8.73;5.90;;;11.70;99.90;;;;;;5036563;28;20571;-88
2022/10/07 03:33:19;;;;;;;9.00;5.95;;;11.60;99.90;;;;;;5037534;28;20285;-86
2022/10/07 03:35:50;;;;;;;7.82;6.43;;;11.50;99.90;;;;;;5021664;28;20211;-87
2022/10/07 03:38:17;;;;;;;8.63;6.20;;;11.40;99.90;;;;;;5029077;28;20726;-87
2022/10/07 03:40:45;;;;;;;9.45;6.68;;;11.30;99.90;;;;;;5024445;28;20199;-87
2022/10/07 03:43:12;;;;;;;8.20;6.80;;;11.20;99.90;;;;;;5034480;28;20205;-87
2022/10/07 03:45:43;;;;;;;7.63;6.75;;;11.20;99.90;;;;;;5021746;28;20226;-87
2022/10/07 03:48:10;;;;;;;7.90;6.10;;;11.10;99.90;;;;;;5034093;28;20218;-87
2022/10/07 03:50:37;;;;;;;9.88;6.72;;;11.10;99.90;;;;;;5030886;28;20320;-87
2022/10/07 03:53:04;;;;;;;8.45;6.65;;;11.10;99.90;;;;;;5032136;28;20206;-87
2022/10/07 03:55:31;;;;;;;10.90;7.07;;;11.10;99.90;;;;;;5033470;28;20219;-87
2022/10/07 03:58:00;;;;;;;9.13;6.78;;;11.10;99.90;;;;;;5033357;28;20198;-87
2022/10/07 04:00:27;;;;;;;11.40;6.80;;;11.10;99.90;;;;;;5033818;28;20262;-87
2022/10/07 04:03:00;;;;;;;8.63;6.25;;;11.00;99.90;;;;;;5032450;28;20206;-87
2022/10/07 04:05:27;;;;;;;7.30;6.60;;;11.00;99.90;;;;;;5035697;28;20222;-87
2022/10/07 04:08:20;;;;;;;6.63;6.03;;;11.00;99.90;;;;;;5034854;28;20199;-87
2022/10/07 04:10:47;;;;;;;7.85;6.32;;;11.00;99.90;;;;;;5036003;28;20219;-87
2022/10/07 04:13:22;;;;;;;7.50;6.07;;;11.00;99.90;;;;;;5035642;28;20195;-87
2022/10/07 04:16:07;;;;;;;9.32;6.53;;;11.00;99.90;;;;;;5028276;28;20221;-87
2022/10/07 04:18:40;;;;;;;6.40;5.57;;;11.00;99.90;;;;;;5029275;28;20199;-87
2022/10/07 04:21:07;;;;;;;5.93;5.20;;;10.90;99.90;;;;;;5029802;28;20199;-87
2022/10/07 04:23:35;;;;;;;7.47;5.30;;;11.00;99.90;;;;;;5032067;28;20202;-87
2022/10/07 04:26:06;;;;;;;7.20;5.40;;;11.10;99.90;;;;;;5030340;28;20198;-88
2022/10/07 04:28:52;;;;;;;6.60;5.15;;;11.10;99.90;;;;;;5026921;28;20239;-87
2022/10/07 04:31:21;;;;;;;7.10;5.80;;;11.10;99.90;;;;;;5033747;28;20290;-88
2022/10/07 04:33:50;;;;;;;8.98;5.35;;;11.10;99.90;;;;;;5034518;28;20214;-87
2022/10/07 04:36:30;;;;;;;6.85;5.68;;;11.10;99.90;;;;;;5030575;28;20229;-87
2022/10/07 04:39:08;;;;;;;6.75;5.47;;;11.10;99.90;;;;;;5029206;28;20210;-87
2022/10/07 04:41:38;;;;;;;7.40;5.75;;;11.00;99.90;;;;;;5031221;28;20266;-88
2022/10/07 04:44:28;;;;;;;10.60;6.45;;;11.00;99.90;;;;;;5028122;28;20206;-87
2022/10/07 04:47:05;;;;;;;6.80;5.60;;;10.90;99.90;;;;;;5020453;28;20557;-87
2022/10/07 04:49:48;;;;;;;7.65;5.95;;;10.90;99.90;;;;;;5032166;28;20202;-87
2022/10/07 04:52:15;;;;;;;7.60;6.15;;;10.90;99.90;;;;;;5036308;28;20253;-87
2022/10/07 04:54:50;;;;;;;7.22;6.18;;;10.80;99.90;;;;;;5023370;28;20218;-87
2022/10/07 04:57:32;;;;;;;8.10;6.57;;;10.80;99.90;;;;;;5032744;28;20284;-87
2022/10/07 05:00:05;;;;;;;9.57;6.43;;;10.70;99.90;;;;;;5041834;28;20260;-87
2022/10/07 05:02:49;;;;;;;9.60;6.95;;;10.60;99.90;;;;;;5036449;28;20186;-88
2022/10/07 05:05:27;;;;;;;10.77;7.30;;;10.60;99.90;;;;;;5029545;28;20250;-87
2022/10/07 05:08:15;;;;;;;11.88;8.15;;;10.60;99.90;;;;;;5029658;28;20233;-87
2022/10/07 05:10:57;;;;;;;18.17;10.23;;;10.70;99.90;;;;;;5029943;28;20708;-87
2022/10/07 05:13:33;;;;;;;22.23;11.55;;;10.60;99.90;;;;;;5046532;28;20561;-88
2022/10/07 05:19:23;;;;;;;20.90;11.23;;;10.80;99.90;;;;;;5034689;28;20267;-87
2022/10/07 05:22:44;;;;;;;19.77;12.45;;;10.90;99.90;;;;;;5034156;28;20570;-87
2022/10/07 05:25:11;;;;;;;19.05;11.32;;;11.00;99.90;;;;;;5035524;28;20222;-88
2022/10/07 05:27:39;;;;;;;19.27;13.05;;;11.10;99.90;;;;;;5035175;28;21804;-87
2022/10/07 05:30:14;;;;;;;17.83;12.63;;;11.20;99.90;;;;;;5038373;28;20289;-87
2022/10/07 05:32:41;;;;;;;20.00;12.32;;;11.30;99.90;;;;;;5039253;28;20230;-86
2022/10/07 05:35:44;;;;;;;20.58;13.18;;;11.30;99.90;;;;;;5041829;28;20560;-87
2022/10/07 05:38:33;;;;;;;18.67;12.43;;;11.40;99.90;;;;;;5037371;28;20234;-86
2022/10/07 05:41:11;;;;;;;18.67;12.63;;;11.40;99.90;;;;;;5038610;28;20209;-86
2022/10/07 05:43:41;;;;;;;29.90;14.35;;;11.40;99.90;;;;;;5040433;28;20214;-86
2022/10/07 05:46:11;;;;;;;21.98;13.90;;;11.30;99.90;;;;;;5038076;28;20195;-87
2022/10/07 05:48:46;;;;;;;26.10;14.85;;;11.30;99.90;;;;;;5038539;28;20209;-87
2022/10/07 05:51:15;;;;;;;22.27;15.25;;;11.30;99.90;;;;;;5039395;28;20258;-87
2022/10/07 05:53:55;;;;;;;22.80;14.52;;;11.40;99.90;;;;;;5041039;28;20209;-87
2022/10/07 05:56:38;;;;;;;19.95;14.95;;;11.60;99.90;;;;;;5037014;28;20362;-87
2022/10/07 05:59:14;;;;;;;22.17;14.95;;;11.70;99.90;;;;;;5037394;28;20357;-87
2022/10/07 06:01:44;;;;;;;25.40;15.57;;;11.80;99.90;;;;;;5043491;28;20258;-88
2022/10/07 06:04:38;;;;;;;23.35;14.85;;;11.80;99.90;;;;;;5045703;28;20199;-87
2022/10/07 06:07:32;;;;;;;23.45;15.55;;;11.80;99.90;;;;;;5042121;28;20266;-87
2022/10/07 06:13:08;;;;;;;19.10;14.70;;;11.80;99.90;;;;;;5044980;28;20256;-87
2022/10/07 06:16:02;;;;;;;16.63;13.63;;;11.90;99.90;;;;;;5042204;28;20225;-88
2022/10/07 06:18:39;;;;;;;16.40;13.32;;;12.00;99.90;;;;;;5038495;28;20654;-87
2022/10/07 06:21:06;;;;;;;16.83;12.57;;;12.10;99.90;;;;;;5044709;28;20280;-86
2022/10/07 06:23:50;;;;;;;14.93;13.30;;;12.20;99.90;;;;;;5037056;28;20592;-86
2022/10/07 06:26:19;;;;;;;14.80;12.75;;;12.20;99.90;;;;;;5035233;28;20198;-86
2022/10/07 06:29:08;;;;;;;14.07;12.10;;;12.20;99.90;;;;;;5036234;28;20698;-87
2022/10/07 06:31:45;;;;;;;14.35;11.30;;;12.30;99.90;;;;;;5038484;28;20258;-87
2022/10/07 06:34:12;;;;;;;13.02;11.55;;;12.40;99.90;;;;;;5034856;28;20201;-88
2022/10/07 06:36:38;;;;;;;12.63;11.32;;;12.40;99.90;;;;;;5038294;28;20313;-89
2022/10/07 06:39:05;;;;;;;12.05;10.85;;;12.40;99.90;;;;;;5029650;28;20290;-87
2022/10/07 06:41:34;;;;;;;14.43;12.10;;;12.40;99.90;;;;;;5032275;28;20275;-87
2022/10/07 06:44:00;;;;;;;15.85;11.73;;;12.50;99.90;;;;;;5028692;28;20282;-88
2022/10/07 06:46:27;;;;;;;15.93;12.65;;;12.50;99.90;;;;;;5039197;28;20262;-88
2022/10/07 06:48:54;;;;;;;17.88;13.18;;;12.50;99.90;;;;;;5026632;28;20522;-88
2022/10/07 06:51:22;;;;;;;16.88;12.50;;;12.40;99.90;;;;;;5035852;28;20202;-89
2022/10/07 06:53:52;;;;;;;16.25;12.80;;;12.40;99.90;;;;;;5036052;28;20221;-88
2022/10/07 06:56:19;;;;;;;16.05;13.15;;;12.40;99.90;;;;;;5036711;28;20674;-88
2022/10/07 06:58:48;;;;;;;16.60;12.68;;;12.30;99.90;;;;;;5033804;28;20209;-88
2022/10/07 07:01:15;;;;;;;16.23;11.57;;;12.50;99.90;;;;;;5029366;28;20195;-88
2022/10/07 07:03:42;;;;;;;16.02;13.20;;;12.50;99.90;;;;;;5034004;28;20229;-88
2022/10/07 07:06:14;;;;;;;22.95;15.80;;;12.50;99.90;;;;;;5029276;28;20226;-88
2022/10/07 07:08:43;;;;;;;21.42;14.82;;;12.50;99.90;;;;;;5029820;28;20203;-89
2022/10/07 07:14:01;;;;;;;20.73;15.30;;;12.60;99.90;;;;;;5031583;28;20205;-90
2022/10/07 07:16:28;;;;;;;23.15;15.55;;;12.80;99.90;;;;;;5025406;28;21032;-89
2022/10/07 07:18:56;;;;;;;17.85;14.73;;;12.70;99.90;;;;;;5030932;28;20206;-88
2022/10/07 07:21:24;;;;;;;18.80;14.02;;;12.80;99.90;;;;;;5032520;28;20203;-89
2022/10/07 07:23:51;;;;;;;22.55;16.63;;;12.90;99.90;;;;;;5029679;28;20205;-88
2022/10/07 07:26:19;;;;;;;24.88;16.40;;;13.10;99.90;;;;;;5031745;28;20220;-89
2022/10/07 07:28:51;;;;;;;23.38;16.15;;;13.30;99.90;;;;;;5023802;28;20615;-89
2022/10/07 07:31:20;;;;;;;22.67;16.10;;;13.30;99.70;;;;;;5034162;28;20207;-89
2022/10/07 07:33:51;;;;;;;21.73;14.93;;;13.30;99.90;;;;;;5030299;28;20657;-90
2022/10/07 07:36:19;;;;;;;22.40;16.10;;;13.50;99.40;;;;;;5029386;28;20228;-89
2022/10/07 07:38:51;;;;;;;24.92;16.98;;;13.40;99.10;;;;;;5025480;28;20612;-88
2022/10/07 07:41:21;;;;;;;27.35;18.45;;;13.30;99.80;;;;;;5032703;28;20206;-88
2022/10/07 07:43:50;;;;;;;24.05;17.35;;;13.20;99.90;;;;;;5033181;28;20210;-89
2022/10/07 07:46:20;;;;;;;20.40;15.48;;;13.00;99.90;;;;;;5029254;28;20206;-89
2022/10/07 07:48:48;;;;;;;22.63;16.95;;;13.20;99.90;;;;;;5028063;28;20206;-89
2022/10/07 07:51:16;;;;;;;18.85;14.88;;;13.40;99.90;;;;;;5037411;28;20297;-89
2022/10/07 07:53:43;;;;;;;19.30;15.10;;;13.30;99.90;;;;;;5031910;28;20207;-90
2022/10/07 07:56:11;;;;;;;18.08;14.82;;;13.40;99.90;;;;;;5025937;28;20226;-89
2022/10/07 07:58:38;;;;;;;21.33;15.88;;;13.70;99.40;;;;;;5030340;28;20199;-89
2022/10/07 08:01:08;;;;;;;17.20;14.55;;;13.70;98.80;;;;;;5028220;28;20213;-89
2022/10/07 08:03:37;;;;;;;19.85;15.82;;;13.90;98.40;;;;;;5035005;28;20208;-89
2022/10/07 08:06:05;;;;;;;19.23;15.88;;;14.10;97.70;;;;;;5036900;28;20314;-89
2022/10/07 08:08:33;;;;;;;20.38;15.30;;;13.90;97.60;;;;;;5027774;28;20225;-89
2022/10/07 08:11:07;;;;;;;16.85;14.82;;;14.00;98.00;;;;;;5026406;28;20222;-89
2022/10/07 08:13:35;;;;;;;18.92;16.05;;;13.90;97.80;;;;;;5027663;28;20199;-89
2022/10/07 08:16:03;;;;;;;21.55;16.85;;;13.80;97.70;;;;;;5029696;28;20226;-89
2022/10/07 08:18:30;;;;;;;18.00;15.85;;;13.60;98.50;;;;;;5030110;28;20198;-89
2022/10/07 08:21:00;;;;;;;21.17;16.95;;;13.50;99.20;;;;;;5023187;28;20238;-88
2022/10/07 08:23:29;;;;;;;23.55;17.98;;;13.50;99.10;;;;;;5027073;28;20290;-89
2022/10/07 08:26:03;;;;;;;25.70;17.63;;;13.30;99.70;;;;;;5031009;28;20205;-89
2022/10/07 08:28:33;;;;;;;20.83;17.42;;;13.30;99.90;;;;;;5025655;28;20312;-89
2022/10/07 08:31:04;;;;;;;19.00;16.10;;;13.30;99.90;;;;;;5029308;28;20198;-89
2022/10/07 08:33:33;;;;;;;20.25;15.88;;;13.40;99.90;;;;;;5028234;28;20236;-88
2022/10/07 08:36:04;;;;;;;22.10;17.65;;;13.60;99.70;;;;;;5028834;28;20222;-90
2022/10/07 08:38:32;;;;;;;23.33;16.95;;;13.60;99.20;;;;;;5030258;28;20632;-88
2022/10/07 08:41:13;;;;;;;26.55;17.75;;;13.50;99.80;;;;;;5028773;28;20203;-88
2022/10/07 08:43:46;;;;;;;21.20;16.05;;;13.40;99.90;;;;;;5025042;28;20718;-89
2022/10/07 08:46:15;;;;;;;19.98;15.70;;;13.50;99.90;;;;;;5032087;28;20210;-88
2022/10/07 08:48:44;;;;;;;19.85;15.73;;;13.50;99.90;;;;;;5030159;28;20264;-88
2022/10/07 08:51:19;;;;;;;18.80;14.18;;;13.70;99.90;;;;;;5033641;28;20209;-89
2022/10/07 08:53:50;;;;;;;16.27;13.77;;;13.80;99.90;;;;;;5030344;28;20213;-89
2022/10/07 08:56:19;;;;;;;19.40;14.02;;;14.10;99.30;;;;;;5029052;28;20246;-89
2022/10/07 08:59:11;;;;;;;17.27;14.75;;;14.30;98.20;;;;;;5029135;28;20199;-89
2022/10/07 09:01:50;;;;;;;18.60;15.25;;;14.20;98.20;;;;;;5029960;28;20211;-89
2022/10/07 09:04:29;;;;;;;18.90;14.85;;;14.10;98.70;;;;;;5030837;28;20218;-89
2022/10/07 09:07:01;;;;;;;20.35;16.15;;;14.20;98.70;;;;;;5029851;28;20690;-89
2022/10/07 09:09:34;;;;;;;18.92;15.63;;;14.10;98.90;;;;;;5034808;28;20290;-89
2022/10/07 09:12:04;;;;;;;19.48;14.65;;;14.10;98.90;;;;;;5028999;28;20293;-89
2022/10/07 09:14:36;;;;;;;24.65;15.43;;;14.20;99.20;;;;;;5033978;28;20253;-89
2022/10/07 09:17:14;;;;;;;18.60;15.30;;;14.30;98.40;;;;;;5026297;28;20226;-89
2022/10/07 09:19:44;;;;;;;20.45;16.55;;;14.40;97.80;;;;;;5031942;28;20731;-89
2022/10/07 09:22:20;;;;;;;20.77;14.88;;;14.30;98.40;;;;;;5033879;28;20211;-89
2022/10/07 09:24:48;;;;;;;17.88;14.77;;;14.20;99.00;;;;;;5033534;28;20292;-89
2022/10/07 09:27:18;;;;;;;19.92;15.30;;;14.40;98.60;;;;;;5030781;28;20210;-89
2022/10/07 09:29:46;;;;;;;18.83;15.40;;;14.50;98.50;;;;;;5036878;28;20289;-88
2022/10/07 09:32:16;;;;;;;19.33;15.10;;;14.40;98.70;;;;;;5031441;28;20675;-88
2022/10/07 09:34:43;;;;;;;20.20;14.23;;;14.40;98.80;;;;;;5034376;28;20199;-89
2022/10/07 09:37:27;;;;;;;18.85;15.40;;;14.60;98.10;;;;;;5033745;28;20218;-89
2022/10/07 09:39:57;;;;;;;20.13;14.70;;;14.60;98.00;;;;;;5028591;28;20214;-89
2022/10/07 09:42:29;;;;;;;19.10;14.65;;;14.50;98.50;;;;;;5036590;28;20209;-89
2022/10/07 09:45:00;;;;;;;19.50;14.52;;;14.50;98.40;;;;;;5033922;28;20202;-89
2022/10/07 09:47:32;;;;;;;118.45;93.75;;;14.60;98.50;;;;;;5031026;28;20289;-88
2022/10/07 09:49:59;;;;;;;18.42;14.75;;;14.70;97.60;;;;;;5034190;28;20740;-89
2022/10/07 09:52:28;;;;;;;17.77;14.45;;;14.90;97.80;;;;;;5040507;28;20198;-88
2022/10/07 09:54:57;;;;;;;18.60;14.82;;;15.10;96.90;;;;;;5029500;28;20201;-90
2022/10/07 09:57:28;;;;;;;17.83;14.60;;;15.30;96.80;;;;;;5027059;28;20304;-87
2022/10/07 10:00:20;;;;;;;19.48;14.82;;;15.30;97.20;;;;;;5031154;28;20581;-89
2022/10/07 10:02:49;;;;;;;18.65;14.63;;;15.20;96.20;;;;;;5039714;28;20913;-90
2022/10/07 10:05:23;;;;;;;20.05;14.88;;;15.10;96.90;;;;;;5037333;28;20233;-90
2022/10/07 10:07:57;;;;;;;23.15;15.70;;;15.20;96.90;;;;;;5035483;28;20209;-89
2022/10/07 10:10:49;;;;;;;19.05;14.00;;;15.20;96.90;;;;;;5038475;28;20376;-89
2022/10/07 10:13:30;;;;;;;22.85;14.93;;;15.60;96.30;;;;;;5033481;28;20538;-90
2022/10/07 10:16:04;;;;;;;18.45;14.52;;;15.50;95.50;;;;;;5026856;28;20206;-90
2022/10/07 10:18:37;;;;;;;20.60;15.27;;;15.70;95.80;;;;;;5033774;28;20194;-90
2022/10/07 10:21:26;;;;;;;17.60;14.55;;;15.60;95.40;;;;;;5031113;28;20257;-90
2022/10/07 10:24:05;;;;;;;20.70;14.30;;;15.90;95.00;;;;;;5033775;28;20211;-88
2022/10/07 10:27:05;;;;;;;19.27;14.48;;;16.00;94.30;;;;;;5034852;28;20205;-88
2022/10/07 10:29:48;;;;;;;18.25;13.25;;;16.10;93.80;;;;;;5025548;28;20199;-88
2022/10/07 10:32:47;;;;;;;21.30;15.50;;;16.10;94.00;;;;;;5036070;28;20654;-87
2022/10/07 10:35:19;;;;;;;20.02;15.10;;;15.90;94.50;;;;;;5044560;28;20650;-88
2022/10/07 10:38:38;;;;;;;18.52;15.02;;;15.70;95.50;;;;;;5024744;28;20752;-88
2022/10/07 10:41:42;;;;;;;18.02;14.18;;;15.90;94.60;;;;;;5033255;28;20289;-89
2022/10/07 10:44:41;;;;;;;18.23;13.93;;;15.90;94.90;;;;;;5026253;28;20664;-90
2022/10/07 10:47:17;;;;;;;19.23;15.07;;;16.00;95.20;;;;;;5028270;28;20198;-88
2022/10/07 10:49:59;;;;;;;17.55;14.02;;;16.20;94.60;;;;;;5030179;28;20201;-88
2022/10/07 10:52:50;;;;;;;19.55;13.70;;;16.20;95.00;;;;;;5032529;28;20315;-89
2022/10/07 10:55:57;;;;;;;17.38;14.80;;;16.60;93.80;;;;;;5024904;28;20316;-89
2022/10/07 10:58:36;;;;;;;17.05;12.93;;;16.50;93.20;;;;;;4981530;28;20681;-89
2022/10/07 11:01:15;;;;;;;15.88;13.60;;;16.60;93.30;;;;;;4984313;28;20212;-90
2022/10/07 11:04:12;;;;;;;39.25;21.42;;;16.70;93.60;;;;;;4993889;28;20298;-86
2022/10/07 11:06:48;;;;;;;139.38;81.68;;;17.20;92.00;;;;;;4993272;28;20540;-88
2022/10/07 11:09:17;;;;;;;25.08;15.20;;;17.10;90.60;;;;;;4992470;28;20291;-87
2022/10/07 11:11:51;;;;;;;16.85;13.32;;;17.30;91.00;;;;;;4993826;28;20199;-86
2022/10/07 11:14:24;;;;;;;21.10;14.30;;;17.10;91.70;;;;;;4992811;28;21265;-88
2022/10/07 11:17:14;;;;;;;13.82;11.93;;;17.20;91.30;;;;;;4994942;28;20295;-87
2022/10/07 11:20:02;;;;;;;17.70;13.88;;;17.60;91.70;;;;;;4994520;28;20243;-86
2022/10/07 11:23:02;;;;;;;18.98;14.18;;;17.70;91.30;;;;;;4991104;28;20574;-88
2022/10/07 11:25:52;;;;;;;15.80;12.82;;;17.60;90.60;;;;;;4990276;28;20378;-91
2022/10/07 11:28:22;;;;;;;16.77;14.48;;;17.60;89.70;;;;;;4985442;28;20628;-91
2022/10/07 11:31:18;;;;;;;16.27;13.45;;;17.50;90.00;;;;;;4990922;28;20196;-90
2022/10/07 11:34:13;;;;;;;15.57;12.27;;;17.70;89.60;;;;;;5030697;28;20209;-90
2022/10/07 11:37:02;;;;;;;14.80;12.07;;;17.80;86.10;;;;;;5031922;28;20699;-89
2022/10/07 11:39:39;;;;;;;12.90;10.43;;;17.70;86.90;;;;;;5027176;28;20272;-90
2022/10/07 11:42:12;;;;;;;14.45;11.45;;;17.80;88.50;;;;;;5028060;28;20209;-89
2022/10/07 11:45:07;;;;;;;17.52;12.90;;;18.00;88.50;;;;;;5029103;28;20570;-89
2022/10/07 11:51:02;;;;;;;16.25;11.15;;;17.80;86.30;;;;;;5022211;28;20198;-90
2022/10/07 11:53:34;;;;;;;15.18;11.70;;;18.00;88.70;;;;;;5023002;28;20294;-89
2022/10/07 11:56:19;;;;;;;12.32;10.65;;;17.90;87.00;;;;;;5031457;28;20202;-89
2022/10/07 11:59:26;;;;;;;14.00;11.20;;;17.90;84.30;;;;;;5025135;28;20208;-90
2022/10/07 12:01:57;;;;;;;14.68;12.00;;;18.10;87.20;;;;;;5029592;28;20707;-91
2022/10/07 12:04:37;;;;;;;14.43;11.68;;;18.00;83.50;;;;;;5025172;28;20590;-93
2022/10/07 12:07:45;;;;;;;14.55;11.88;;;18.10;85.30;;;;;;5030343;28;20217;-89
2022/10/07 12:10:32;;;;;;;15.57;12.65;;;18.10;83.50;;;;;;5026877;28;20210;-89
2022/10/07 12:13:37;;;;;;;17.58;13.55;;;18.20;82.90;;;;;;5027751;28;20667;-90
2022/10/07 12:16:54;;;;;;;16.00;10.38;;;18.00;83.10;;;;;;5018969;28;20198;-89
2022/10/07 12:19:21;;;;;;;17.02;12.98;;;17.80;86.30;;;;;;5003369;28;20230;-89
2022/10/07 12:25:41;;;;;;;17.88;11.85;;;17.70;86.30;;;;;;5005094;28;20196;-88
2022/10/07 12:28:30;;;;;;;18.15;12.68;;;17.90;87.70;;;;;;5007471;28;20210;-87
2022/10/07 12:31:35;;;;;;;14.20;11.32;;;18.10;82.70;;;;;;5011021;28;20203;-88
2022/10/07 12:34:10;;;;;;;14.13;12.35;;;18.40;82.70;;;;;;5006995;28;20226;-89
2022/10/07 12:36:45;;;;;;;12.77;10.90;;;18.50;81.20;;;;;;5009950;28;20195;-88
2022/10/07 12:39:36;;;;;;;15.57;12.68;;;18.60;79.80;;;;;;5010029;28;20202;-89
2022/10/07 12:42:12;;;;;;;17.13;12.93;;;18.50;79.80;;;;;;5001468;28;20210;-89
2022/10/07 12:44:46;;;;;;;14.52;12.07;;;18.50;79.80;;;;;;5002322;28;20191;-89
2022/10/07 12:47:28;;;;;;;16.88;13.73;;;18.40;79.70;;;;;;5005851;28;20202;-89
2022/10/07 12:50:00;;;;;;;14.73;10.85;;;18.50;79.80;;;;;;5004111;28;20194;-86
2022/10/07 12:52:45;;;;;;;16.75;11.93;;;18.70;79.90;;;;;;5015411;28;20209;-86
2022/10/07 12:55:18;;;;;;;15.48;12.40;;;18.80;80.00;;;;;;5033604;28;20194;-86
2022/10/07 12:59:45;;;;;;;14.80;12.05;;;18.80;80.00;;;;;;5031828;28;20775;-87
2022/10/07 13:00:49;;;;;;;18.80;12.23;;;18.90;77.40;;;;;;5026050;28;20207;-89
2022/10/07 13:03:45;;;;;;;13.55;11.77;;;18.60;79.80;;;;;;5029509;28;20244;-89
2022/10/07 13:06:58;;;;;;;14.73;10.65;;;18.40;80.40;;;;;;5028281;28;20227;-89
2022/10/07 13:10:08;;;;;;;16.42;12.07;;;18.20;83.50;;;;;;5034904;28;20204;-89
2022/10/07 13:12:44;;;;;;;19.70;12.93;;;18.20;82.70;;;;;;5030056;28;20198;-89
2022/10/07 13:15:26;;;;;;;17.23;13.23;;;18.40;84.40;;;;;;5030447;28;20207;-89
2022/10/07 13:18:04;;;;;;;15.65;12.30;;;18.50;81.40;;;;;;5028782;28;20724;-89
2022/10/07 13:20:53;;;;;;;15.45;11.70;;;18.70;79.90;;;;;;5029837;28;21042;-89
2022/10/07 13:23:56;;;;;;;14.07;12.10;;;18.50;81.40;;;;;;5024878;28;20203;-89
2022/10/07 13:26:25;;;;;;;15.25;11.90;;;18.50;80.80;;;;;;5031265;28;20277;-89
2022/10/07 13:28:55;;;;;;;16.25;12.90;;;18.40;81.70;;;;;;5032463;28;20240;-89
2022/10/07 13:31:26;;;;;;;15.23;12.80;;;18.20;83.90;;;;;;5025064;28;20198;-89
2022/10/07 13:34:16;;;;;;;17.48;14.13;;;17.90;83.30;;;;;;5033473;28;20195;-89
2022/10/07 13:36:46;;;;;;;20.08;15.02;;;17.70;86.40;;;;;;5035381;28;20190;-89
2022/10/07 13:39:22;;;;;;;14.82;13.15;;;17.40;89.30;;;;;;5031797;28;20203;-89